sensor_id;sensor_type;location;lat;lon;timestamp;temperature;humidity
75010;DHT22;63564;46.840;18.336;2024-02-16T00:01:46;6.71;89.29
75010;DHT22;63564;46.840;18.336;2024-02-16T00:04:47;6.63;89.29
75010;DHT22;63564;46.840;18.336;2024-02-16T00:07:47;6.65;89.11
75010;DHT22;63564;46.840;18.336;2024-02-16T00:10:47;6.80;87.78
75010;DHT22;63564;46.840;18.336;2024-02-16T00:13:48;6.97;86.46
75010;DHT22;63564;46.840;18.336;2024-02-16T00:16:48;7.04;85.92
75010;DHT22;63564;46.840;18.336;2024-02-16T00:19:49;7.11;85.20
75010;DHT22;63564;46.840;18.336;2024-02-16T00:22:49;7.10;85.36
75010;DHT22;63564;46.840;18.336;2024-02-16T00:25:49;7.04;85.67
75010;DHT22;63564;46.840;18.336;2024-02-16T00:28:50;6.82;86.03
75010;DHT22;63564;46.840;18.336;2024-02-16T00:31:50;6.84;85.54
75010;DHT22;63564;46.840;18.336;2024-02-16T00:34:50;6.90;85.32
75010;DHT22;63564;46.840;18.336;2024-02-16T00:37:53;6.90;85.55
75010;DHT22;63564;46.840;18.336;2024-02-16T00:40:54;6.71;86.49
75010;DHT22;63564;46.840;18.336;2024-02-16T00:43:54;6.57;86.74
75010;DHT22;63564;46.840;18.336;2024-02-16T00:46:56;6.49;87.02
75010;DHT22;63564;46.840;18.336;2024-02-16T00:49:56;6.39;87.06
75010;DHT22;63564;46.840;18.336;2024-02-16T00:52:57;6.36;87.12
75010;DHT22;63564;46.840;18.336;2024-02-16T00:55:59;6.42;87.14
75010;DHT22;63564;46.840;18.336;2024-02-16T00:58:59;6.38;86.98
75010;DHT22;63564;46.840;18.336;2024-02-16T01:02:00;6.25;86.89
75010;DHT22;63564;46.840;18.336;2024-02-16T01:05:00;6.17;87.22
75010;DHT22;63564;46.840;18.336;2024-02-16T01:08:02;6.18;87.64
75010;DHT22;63564;46.840;18.336;2024-02-16T01:11:02;6.25;86.73
75010;DHT22;63564;46.840;18.336;2024-02-16T01:14:03;6.20;86.83
75010;DHT22;63564;46.840;18.336;2024-02-16T01:17:03;6.04;88.02
75010;DHT22;63564;46.840;18.336;2024-02-16T01:20:05;5.94;88.37
75010;DHT22;63564;46.840;18.336;2024-02-16T01:23:06;5.79;89.02
75010;DHT22;63564;46.840;18.336;2024-02-16T01:26:06;5.74;89.30
75010;DHT22;63564;46.840;18.336;2024-02-16T01:29:06;5.65;89.40
75010;DHT22;63564;46.840;18.336;2024-02-16T01:32:07;5.38;90.31
75010;DHT22;63564;46.840;18.336;2024-02-16T01:35:07;5.14;91.46
75010;DHT22;63564;46.840;18.336;2024-02-16T01:38:08;5.07;91.92
75010;DHT22;63564;46.840;18.336;2024-02-16T01:41:08;5.04;92.36
75010;DHT22;63564;46.840;18.336;2024-02-16T01:44:09;5.01;92.64
75010;DHT22;63564;46.840;18.336;2024-02-16T01:47:09;4.97;92.63
75010;DHT22;63564;46.840;18.336;2024-02-16T01:50:10;4.93;92.73
75010;DHT22;63564;46.840;18.336;2024-02-16T01:53:15;4.90;92.84
75010;DHT22;63564;46.840;18.336;2024-02-16T01:56:18;4.79;92.85
75010;DHT22;63564;46.840;18.336;2024-02-16T01:59:21;4.66;92.97
75010;DHT22;63564;46.840;18.336;2024-02-16T02:02:22;4.39;93.44
75010;DHT22;63564;46.840;18.336;2024-02-16T02:05:22;4.26;93.78
75010;DHT22;63564;46.840;18.336;2024-02-16T02:08:24;4.12;93.92
75010;DHT22;63564;46.840;18.336;2024-02-16T02:11:25;4.14;94.03
75010;DHT22;63564;46.840;18.336;2024-02-16T02:14:25;4.25;94.06
75010;DHT22;63564;46.840;18.336;2024-02-16T02:17:26;4.26;93.90
75010;DHT22;63564;46.840;18.336;2024-02-16T02:20:26;4.31;93.68
75010;DHT22;63564;46.840;18.336;2024-02-16T02:23:27;4.22;94.02
75010;DHT22;63564;46.840;18.336;2024-02-16T02:26:27;4.16;94.08
75010;DHT22;63564;46.840;18.336;2024-02-16T02:29:28;4.12;93.78
75010;DHT22;63564;46.840;18.336;2024-02-16T02:32:28;3.91;93.96
75010;DHT22;63564;46.840;18.336;2024-02-16T02:35:29;3.80;94.62
75010;DHT22;63564;46.840;18.336;2024-02-16T02:38:29;3.91;94.67
75010;DHT22;63564;46.840;18.336;2024-02-16T02:41:30;3.90;94.62
75010;DHT22;63564;46.840;18.336;2024-02-16T02:44:30;3.88;94.52
75010;DHT22;63564;46.840;18.336;2024-02-16T02:47:32;3.87;94.40
75010;DHT22;63564;46.840;18.336;2024-02-16T02:50:32;3.87;94.71
75010;DHT22;63564;46.840;18.336;2024-02-16T02:53:33;3.91;94.73
75010;DHT22;63564;46.840;18.336;2024-02-16T02:56:33;3.95;94.21
75010;DHT22;63564;46.840;18.336;2024-02-16T02:59:33;3.93;94.10
75010;DHT22;63564;46.840;18.336;2024-02-16T03:02:34;3.91;94.10
75010;DHT22;63564;46.840;18.336;2024-02-16T03:05:34;3.90;94.05
75010;DHT22;63564;46.840;18.336;2024-02-16T03:08:35;3.74;94.21
75010;DHT22;63564;46.840;18.336;2024-02-16T03:11:35;3.70;94.23
75010;DHT22;63564;46.840;18.336;2024-02-16T03:14:36;3.71;94.32
75010;DHT22;63564;46.840;18.336;2024-02-16T03:17:37;3.63;94.83
75010;DHT22;63564;46.840;18.336;2024-02-16T03:20:37;3.60;94.74
75010;DHT22;63564;46.840;18.336;2024-02-16T03:23:37;3.58;94.76
75010;DHT22;63564;46.840;18.336;2024-02-16T03:26:38;3.49;94.59
75010;DHT22;63564;46.840;18.336;2024-02-16T03:29:38;3.38;94.83
75010;DHT22;63564;46.840;18.336;2024-02-16T03:32:38;3.32;94.75
75010;DHT22;63564;46.840;18.336;2024-02-16T03:35:39;3.25;95.23
75010;DHT22;63564;46.840;18.336;2024-02-16T03:38:43;3.32;95.52
75010;DHT22;63564;46.840;18.336;2024-02-16T03:41:44;3.32;95.34
75010;DHT22;63564;46.840;18.336;2024-02-16T03:44:47;3.28;95.44
75010;DHT22;63564;46.840;18.336;2024-02-16T03:47:48;3.25;95.40
75010;DHT22;63564;46.840;18.336;2024-02-16T03:50:54;3.23;95.53
75010;DHT22;63564;46.840;18.336;2024-02-16T03:53:54;3.21;95.48
75010;DHT22;63564;46.840;18.336;2024-02-16T03:56:55;3.19;95.72
75010;DHT22;63564;46.840;18.336;2024-02-16T03:59:56;3.15;95.31
75010;DHT22;63564;46.840;18.336;2024-02-16T04:02:56;3.09;95.31
75010;DHT22;63564;46.840;18.336;2024-02-16T04:05:56;3.04;95.63
75010;DHT22;63564;46.840;18.336;2024-02-16T04:08:57;3.07;95.73
75010;DHT22;63564;46.840;18.336;2024-02-16T04:11:57;3.12;95.47
75010;DHT22;63564;46.840;18.336;2024-02-16T04:14:57;3.12;95.42
75010;DHT22;63564;46.840;18.336;2024-02-16T04:17:58;3.18;95.12
75010;DHT22;63564;46.840;18.336;2024-02-16T04:20:59;3.15;94.94
75010;DHT22;63564;46.840;18.336;2024-02-16T04:23:59;3.04;95.13
75010;DHT22;63564;46.840;18.336;2024-02-16T04:26:59;2.98;95.47
75010;DHT22;63564;46.840;18.336;2024-02-16T04:30:00;3.01;95.70
75010;DHT22;63564;46.840;18.336;2024-02-16T04:33:01;3.01;95.27
75010;DHT22;63564;46.840;18.336;2024-02-16T04:36:01;3.05;95.40
75010;DHT22;63564;46.840;18.336;2024-02-16T04:39:02;3.07;95.29
75010;DHT22;63564;46.840;18.336;2024-02-16T04:42:02;3.11;95.11
75010;DHT22;63564;46.840;18.336;2024-02-16T04:45:03;3.11;94.96
75010;DHT22;63564;46.840;18.336;2024-02-16T04:48:05;3.15;94.86
75010;DHT22;63564;46.840;18.336;2024-02-16T04:51:05;3.23;94.46
75010;DHT22;63564;46.840;18.336;2024-02-16T04:54:06;3.23;94.29
75010;DHT22;63564;46.840;18.336;2024-02-16T04:57:06;3.26;94.19
75010;DHT22;63564;46.840;18.336;2024-02-16T05:00:07;3.26;93.97
75010;DHT22;63564;46.840;18.336;2024-02-16T05:03:09;3.19;94.01
75010;DHT22;63564;46.840;18.336;2024-02-16T05:06:10;3.02;94.21
75010;DHT22;63564;46.840;18.336;2024-02-16T05:09:10;3.05;94.64
75010;DHT22;63564;46.840;18.336;2024-02-16T05:12:10;3.07;94.59
75010;DHT22;63564;46.840;18.336;2024-02-16T05:15:11;3.01;94.87
75010;DHT22;63564;46.840;18.336;2024-02-16T05:18:13;3.02;94.80
75010;DHT22;63564;46.840;18.336;2024-02-16T05:21:13;3.05;94.88
75010;DHT22;63564;46.840;18.336;2024-02-16T05:24:14;3.07;94.73
75010;DHT22;63564;46.840;18.336;2024-02-16T05:27:14;3.02;94.66
75010;DHT22;63564;46.840;18.336;2024-02-16T05:30:15;3.04;94.85
75010;DHT22;63564;46.840;18.336;2024-02-16T05:33:15;3.08;94.53
75010;DHT22;63564;46.840;18.336;2024-02-16T05:36:19;3.13;94.10
75010;DHT22;63564;46.840;18.336;2024-02-16T05:39:27;3.19;94.12
75010;DHT22;63564;46.840;18.336;2024-02-16T05:42:31;3.21;94.04
75010;DHT22;63564;46.840;18.336;2024-02-16T05:45:31;3.12;94.29
75010;DHT22;63564;46.840;18.336;2024-02-16T05:48:35;3.19;93.94
75010;DHT22;63564;46.840;18.336;2024-02-16T05:51:40;3.23;94.02
75010;DHT22;63564;46.840;18.336;2024-02-16T05:54:41;3.23;94.18
75010;DHT22;63564;46.840;18.336;2024-02-16T05:57:41;3.12;94.27
75010;DHT22;63564;46.840;18.336;2024-02-16T06:00:41;3.22;94.11
75010;DHT22;63564;46.840;18.336;2024-02-16T06:03:42;3.32;93.60
75010;DHT22;63564;46.840;18.336;2024-02-16T06:06:43;3.29;93.55
75010;DHT22;63564;46.840;18.336;2024-02-16T06:09:43;3.29;93.57
75010;DHT22;63564;46.840;18.336;2024-02-16T06:12:44;3.22;93.71
75010;DHT22;63564;46.840;18.336;2024-02-16T06:15:44;3.23;93.96
75010;DHT22;63564;46.840;18.336;2024-02-16T06:18:45;3.29;94.02
75010;DHT22;63564;46.840;18.336;2024-02-16T06:21:45;3.25;94.21
75010;DHT22;63564;46.840;18.336;2024-02-16T06:24:45;3.28;94.41
75010;DHT22;63564;46.840;18.336;2024-02-16T06:27:46;3.29;94.13
75010;DHT22;63564;46.840;18.336;2024-02-16T06:30:46;3.53;93.55
75010;DHT22;63564;46.840;18.336;2024-02-16T06:33:46;3.55;93.55
75010;DHT22;63564;46.840;18.336;2024-02-16T06:36:47;3.60;93.63
75010;DHT22;63564;46.840;18.336;2024-02-16T06:39:47;3.83;92.82
75010;DHT22;63564;46.840;18.336;2024-02-16T06:42:48;3.86;93.03
75010;DHT22;63564;46.840;18.336;2024-02-16T06:45:48;3.86;93.37
75010;DHT22;63564;46.840;18.336;2024-02-16T06:48:48;4.05;93.43
75010;DHT22;63564;46.840;18.336;2024-02-16T06:51:50;4.14;92.95
75010;DHT22;63564;46.840;18.336;2024-02-16T06:54:50;4.25;93.28
75010;DHT22;63564;46.840;18.336;2024-02-16T06:57:51;4.39;92.78
75010;DHT22;63564;46.840;18.336;2024-02-16T07:00:52;4.57;92.17
75010;DHT22;63564;46.840;18.336;2024-02-16T07:03:52;4.76;92.08
75010;DHT22;63564;46.840;18.336;2024-02-16T07:06:53;4.87;91.51
75010;DHT22;63564;46.840;18.336;2024-02-16T07:09:53;5.21;90.75
75010;DHT22;63564;46.840;18.336;2024-02-16T07:12:54;5.49;90.05
75010;DHT22;63564;46.840;18.336;2024-02-16T07:15:54;5.62;90.00
75010;DHT22;63564;46.840;18.336;2024-02-16T07:19:03;5.74;89.87
75010;DHT22;63564;46.840;18.336;2024-02-16T07:22:06;5.87;89.46
75010;DHT22;63564;46.840;18.336;2024-02-16T07:25:10;6.08;89.13
75010;DHT22;63564;46.840;18.336;2024-02-16T07:28:12;6.35;87.30
75010;DHT22;63564;46.840;18.336;2024-02-16T07:31:12;6.62;85.71
75010;DHT22;63564;46.840;18.336;2024-02-16T07:34:14;6.83;84.64
75010;DHT22;63564;46.840;18.336;2024-02-16T07:37:14;7.00;83.51
75010;DHT22;63564;46.840;18.336;2024-02-16T07:40:16;7.18;83.39
75010;DHT22;63564;46.840;18.336;2024-02-16T07:43:17;7.39;83.02
75010;DHT22;63564;46.840;18.336;2024-02-16T07:46:18;7.38;83.11
75010;DHT22;63564;46.840;18.336;2024-02-16T07:49:18;7.54;82.08
75010;DHT22;63564;46.840;18.336;2024-02-16T07:52:19;7.75;81.22
75010;DHT22;63564;46.840;18.336;2024-02-16T07:55:19;7.87;79.95
75010;DHT22;63564;46.840;18.336;2024-02-16T07:58:20;8.03;79.11
75010;DHT22;63564;46.840;18.336;2024-02-16T08:01:21;8.18;78.52
75010;DHT22;63564;46.840;18.336;2024-02-16T08:04:21;8.25;77.67
75010;DHT22;63564;46.840;18.336;2024-02-16T08:07:22;8.28;77.63
75010;DHT22;63564;46.840;18.336;2024-02-16T08:10:22;8.42;76.10
75010;DHT22;63564;46.840;18.336;2024-02-16T08:13:23;8.63;74.95
75010;DHT22;63564;46.840;18.336;2024-02-16T08:16:29;8.82;74.90
75010;DHT22;63564;46.840;18.336;2024-02-16T08:19:34;8.66;75.52
75010;DHT22;63564;46.840;18.336;2024-02-16T08:22:34;8.96;74.83
75010;DHT22;63564;46.840;18.336;2024-02-16T08:25:36;8.90;75.17
75010;DHT22;63564;46.840;18.336;2024-02-16T08:28:36;9.09;74.37
75010;DHT22;63564;46.840;18.336;2024-02-16T08:31:38;9.27;74.85
75010;DHT22;63564;46.840;18.336;2024-02-16T08:34:43;9.44;74.26
75010;DHT22;63564;46.840;18.336;2024-02-16T08:37:46;9.63;74.71
75010;DHT22;63564;46.840;18.336;2024-02-16T08:40:46;9.90;73.66
75010;DHT22;63564;46.840;18.336;2024-02-16T08:43:48;10.06;73.21
75010;DHT22;63564;46.840;18.336;2024-02-16T08:46:48;10.18;73.31
75010;DHT22;63564;46.840;18.336;2024-02-16T08:49:49;10.21;72.46
75010;DHT22;63564;46.840;18.336;2024-02-16T08:52:50;10.50;71.61
75010;DHT22;63564;46.840;18.336;2024-02-16T08:55:55;10.65;71.99
75010;DHT22;63564;46.840;18.336;2024-02-16T08:58:59;11.47;77.15
75010;DHT22;63564;46.840;18.336;2024-02-16T09:01:59;13.08;69.97
75010;DHT22;63564;46.840;18.336;2024-02-16T09:05:00;14.04;63.66
75010;DHT22;63564;46.840;18.336;2024-02-16T09:08:00;13.81;61.22
75010;DHT22;63564;46.840;18.336;2024-02-16T09:11:02;12.73;64.79
75010;DHT22;63564;46.840;18.336;2024-02-16T09:14:05;12.77;65.86
75010;DHT22;63564;46.840;18.336;2024-02-16T09:17:06;12.71;67.16
75010;DHT22;63564;46.840;18.336;2024-02-16T09:20:07;13.14;66.39
75010;DHT22;63564;46.840;18.336;2024-02-16T09:23:08;12.65;65.96
75010;DHT22;63564;46.840;18.336;2024-02-16T09:26:09;12.51;67.46
75010;DHT22;63564;46.840;18.336;2024-02-16T09:29:10;12.77;67.88
75010;DHT22;63564;46.840;18.336;2024-02-16T09:32:10;13.25;65.38
75010;DHT22;63564;46.840;18.336;2024-02-16T09:35:11;13.08;66.53
75010;DHT22;63564;46.840;18.336;2024-02-16T09:38:12;13.15;65.05
75010;DHT22;63564;46.840;18.336;2024-02-16T09:41:13;13.18;66.45
75010;DHT22;63564;46.840;18.336;2024-02-16T09:44:13;13.27;65.44
75010;DHT22;63564;46.840;18.336;2024-02-16T09:47:14;13.16;64.24
75010;DHT22;63564;46.840;18.336;2024-02-16T09:50:15;12.91;65.70
75010;DHT22;63564;46.840;18.336;2024-02-16T09:53:17;12.39;63.92
75010;DHT22;63564;46.840;18.336;2024-02-16T09:56:20;12.91;64.17
75010;DHT22;63564;46.840;18.336;2024-02-16T09:59:20;13.67;61.80
75010;DHT22;63564;46.840;18.336;2024-02-16T10:02:21;13.80;60.25
75010;DHT22;63564;46.840;18.336;2024-02-16T10:05:21;14.36;60.51
75010;DHT22;63564;46.840;18.336;2024-02-16T10:08:22;14.38;59.67
75010;DHT22;63564;46.840;18.336;2024-02-16T10:11:24;13.43;61.80
75010;DHT22;63564;46.840;18.336;2024-02-16T10:14:27;14.52;59.42
75010;DHT22;63564;46.840;18.336;2024-02-16T10:17:28;14.63;59.25
75010;DHT22;63564;46.840;18.336;2024-02-16T10:20:29;15.55;55.86
75010;DHT22;63564;46.840;18.336;2024-02-16T10:23:30;15.55;55.47
75010;DHT22;63564;46.840;18.336;2024-02-16T10:26:30;15.11;57.11
75010;DHT22;63564;46.840;18.336;2024-02-16T10:29:32;15.15;56.53
75010;DHT22;63564;46.840;18.336;2024-02-16T10:32:34;15.48;54.85
75010;DHT22;63564;46.840;18.336;2024-02-16T10:35:35;14.84;55.72
75010;DHT22;63564;46.840;18.336;2024-02-16T10:38:37;15.05;57.45
75010;DHT22;63564;46.840;18.336;2024-02-16T10:41:40;15.62;54.96
75010;DHT22;63564;46.840;18.336;2024-02-16T10:44:42;15.60;54.88
75010;DHT22;63564;46.840;18.336;2024-02-16T10:47:43;15.49;57.25
75010;DHT22;63564;46.840;18.336;2024-02-16T10:50:43;15.14;57.85
75010;DHT22;63564;46.840;18.336;2024-02-16T10:53:44;15.31;56.19
75010;DHT22;63564;46.840;18.336;2024-02-16T10:56:45;15.11;58.00
75010;DHT22;63564;46.840;18.336;2024-02-16T10:59:52;14.69;59.73
75010;DHT22;63564;46.840;18.336;2024-02-16T11:02:56;15.01;58.34
75010;DHT22;63564;46.840;18.336;2024-02-16T11:05:58;14.66;60.62
75010;DHT22;63564;46.840;18.336;2024-02-16T11:09:03;15.46;58.49
75010;DHT22;63564;46.840;18.336;2024-02-16T11:12:12;15.07;57.91
75010;DHT22;63564;46.840;18.336;2024-02-16T11:15:13;15.05;59.70
75010;DHT22;63564;46.840;18.336;2024-02-16T11:18:14;15.85;58.28
75010;DHT22;63564;46.840;18.336;2024-02-16T11:21:15;15.15;58.23
75010;DHT22;63564;46.840;18.336;2024-02-16T11:24:16;14.59;59.61
75010;DHT22;63564;46.840;18.336;2024-02-16T11:27:17;14.57;59.56
75010;DHT22;63564;46.840;18.336;2024-02-16T11:30:29;15.22;57.81
75010;DHT22;63564;46.840;18.336;2024-02-16T11:33:32;15.31;57.78
75010;DHT22;63564;46.840;18.336;2024-02-16T11:36:32;15.11;59.07
75010;DHT22;63564;46.840;18.336;2024-02-16T11:39:33;14.42;59.21
75010;DHT22;63564;46.840;18.336;2024-02-16T11:42:37;14.63;59.80
75010;DHT22;63564;46.840;18.336;2024-02-16T11:45:38;14.59;61.00
75010;DHT22;63564;46.840;18.336;2024-02-16T11:48:38;14.35;60.36
75010;DHT22;63564;46.840;18.336;2024-02-16T11:51:39;14.42;59.91
75010;DHT22;63564;46.840;18.336;2024-02-16T11:54:44;14.56;60.00
75010;DHT22;63564;46.840;18.336;2024-02-16T11:57:44;14.91;59.80
75010;DHT22;63564;46.840;18.336;2024-02-16T12:00:49;14.80;58.50
75010;DHT22;63564;46.840;18.336;2024-02-16T12:03:50;14.93;58.01
75010;DHT22;63564;46.840;18.336;2024-02-16T12:07:02;15.45;59.91
75010;DHT22;63564;46.840;18.336;2024-02-16T12:10:16;15.32;58.85
75010;DHT22;63564;46.840;18.336;2024-02-16T12:13:23;14.94;58.50
75010;DHT22;63564;46.840;18.336;2024-02-16T12:16:25;15.48;56.13
75010;DHT22;63564;46.840;18.336;2024-02-16T12:19:25;15.82;55.75
75010;DHT22;63564;46.840;18.336;2024-02-16T12:22:26;15.00;58.14
75010;DHT22;63564;46.840;18.336;2024-02-16T12:25:26;15.03;58.52
75010;DHT22;63564;46.840;18.336;2024-02-16T12:28:28;14.93;58.29
75010;DHT22;63564;46.840;18.336;2024-02-16T12:31:29;15.31;58.23
75010;DHT22;63564;46.840;18.336;2024-02-16T12:34:30;15.24;58.05
75010;DHT22;63564;46.840;18.336;2024-02-16T12:37:31;15.32;57.32
75010;DHT22;63564;46.840;18.336;2024-02-16T12:40:31;16.34;55.95
75010;DHT22;63564;46.840;18.336;2024-02-16T12:43:32;16.54;53.84
75010;DHT22;63564;46.840;18.336;2024-02-16T12:46:32;16.22;55.91
75010;DHT22;63564;46.840;18.336;2024-02-16T12:49:33;15.63;55.54
75010;DHT22;63564;46.840;18.336;2024-02-16T12:52:35;15.91;56.58
75010;DHT22;63564;46.840;18.336;2024-02-16T12:55:38;16.49;53.27
75010;DHT22;63564;46.840;18.336;2024-02-16T12:58:39;16.38;52.89
75010;DHT22;63564;46.840;18.336;2024-02-16T13:01:40;16.96;51.74
75010;DHT22;63564;46.840;18.336;2024-02-16T13:04:41;16.56;52.57
75010;DHT22;63564;46.840;18.336;2024-02-16T13:07:42;17.41;51.41
75010;DHT22;63564;46.840;18.336;2024-02-16T13:10:42;17.17;52.58
75010;DHT22;63564;46.840;18.336;2024-02-16T13:13:42;17.61;51.19
75010;DHT22;63564;46.840;18.336;2024-02-16T13:16:43;16.94;51.73
75010;DHT22;63564;46.840;18.336;2024-02-16T13:19:43;16.86;53.17
75010;DHT22;63564;46.840;18.336;2024-02-16T13:22:43;16.59;54.80
75010;DHT22;63564;46.840;18.336;2024-02-16T13:25:44;16.35;53.82
75010;DHT22;63564;46.840;18.336;2024-02-16T13:28:44;16.44;53.74
75010;DHT22;63564;46.840;18.336;2024-02-16T13:31:44;16.66;53.63
75010;DHT22;63564;46.840;18.336;2024-02-16T13:34:45;16.99;53.49
75010;DHT22;63564;46.840;18.336;2024-02-16T13:37:46;16.42;52.46
75010;DHT22;63564;46.840;18.336;2024-02-16T13:40:48;16.47;54.75
75010;DHT22;63564;46.840;18.336;2024-02-16T13:43:50;16.49;54.45
75010;DHT22;63564;46.840;18.336;2024-02-16T13:46:51;17.11;53.43
75010;DHT22;63564;46.840;18.336;2024-02-16T13:49:52;16.62;53.63
75010;DHT22;63564;46.840;18.336;2024-02-16T13:52:52;16.42;53.88
75010;DHT22;63564;46.840;18.336;2024-02-16T13:55:52;16.34;54.02
75010;DHT22;63564;46.840;18.336;2024-02-16T13:58:53;16.35;53.37
75010;DHT22;63564;46.840;18.336;2024-02-16T14:01:54;15.78;55.03
75010;DHT22;63564;46.840;18.336;2024-02-16T14:04:54;15.52;56.08
75010;DHT22;63564;46.840;18.336;2024-02-16T14:07:56;15.27;56.18
75010;DHT22;63564;46.840;18.336;2024-02-16T14:10:57;15.46;56.79
75010;DHT22;63564;46.840;18.336;2024-02-16T14:13:57;15.66;56.43
75010;DHT22;63564;46.840;18.336;2024-02-16T14:16:57;15.43;57.23
75010;DHT22;63564;46.840;18.336;2024-02-16T14:19:58;15.36;56.87
75010;DHT22;63564;46.840;18.336;2024-02-16T14:22:58;14.86;57.15
75010;DHT22;63564;46.840;18.336;2024-02-16T14:25:59;15.05;58.12
75010;DHT22;63564;46.840;18.336;2024-02-16T14:29:00;15.04;58.88
75010;DHT22;63564;46.840;18.336;2024-02-16T14:32:01;14.91;58.23
75010;DHT22;63564;46.840;18.336;2024-02-16T14:35:01;15.41;57.34
75010;DHT22;63564;46.840;18.336;2024-02-16T14:38:03;15.36;56.77
75010;DHT22;63564;46.840;18.336;2024-02-16T14:41:05;15.30;57.11
75010;DHT22;63564;46.840;18.336;2024-02-16T14:44:05;15.90;55.75
75010;DHT22;63564;46.840;18.336;2024-02-16T14:47:06;15.63;55.93
75010;DHT22;63564;46.840;18.336;2024-02-16T14:50:06;15.45;58.17
75010;DHT22;63564;46.840;18.336;2024-02-16T14:53:07;15.46;57.11
75010;DHT22;63564;46.840;18.336;2024-02-16T14:56:08;15.27;57.05
75010;DHT22;63564;46.840;18.336;2024-02-16T14:59:09;15.36;56.75
75010;DHT22;63564;46.840;18.336;2024-02-16T15:02:10;15.43;57.03
75010;DHT22;63564;46.840;18.336;2024-02-16T15:05:10;15.04;57.91
75010;DHT22;63564;46.840;18.336;2024-02-16T15:08:11;15.01;58.74
75010;DHT22;63564;46.840;18.336;2024-02-16T15:11:11;14.83;59.00
75010;DHT22;63564;46.840;18.336;2024-02-16T15:14:12;14.17;60.83
75010;DHT22;63564;46.840;18.336;2024-02-16T15:17:13;14.00;61.58
75010;DHT22;63564;46.840;18.336;2024-02-16T15:20:14;13.77;62.41
75010;DHT22;63564;46.840;18.336;2024-02-16T15:23:14;13.50;62.70
75010;DHT22;63564;46.840;18.336;2024-02-16T15:26:14;13.49;63.00
75010;DHT22;63564;46.840;18.336;2024-02-16T15:29:15;13.59;62.82
75010;DHT22;63564;46.840;18.336;2024-02-16T15:32:15;13.67;62.60
75010;DHT22;63564;46.840;18.336;2024-02-16T15:35:15;13.47;63.06
75010;DHT22;63564;46.840;18.336;2024-02-16T15:38:17;13.35;63.16
75010;DHT22;63564;46.840;18.336;2024-02-16T15:41:17;13.16;64.00
75010;DHT22;63564;46.840;18.336;2024-02-16T15:44:17;12.99;64.82
75010;DHT22;63564;46.840;18.336;2024-02-16T15:47:18;12.74;65.47
75010;DHT22;63564;46.840;18.336;2024-02-16T15:50:18;12.68;64.72
75010;DHT22;63564;46.840;18.336;2024-02-16T15:53:19;12.28;66.62
75010;DHT22;63564;46.840;18.336;2024-02-16T15:56:19;11.94;66.81
75010;DHT22;63564;46.840;18.336;2024-02-16T15:59:19;11.86;66.73
75010;DHT22;63564;46.840;18.336;2024-02-16T16:02:20;11.70;66.95
75010;DHT22;63564;46.840;18.336;2024-02-16T16:05:20;11.37;68.39
75010;DHT22;63564;46.840;18.336;2024-02-16T16:08:21;11.20;68.62
75010;DHT22;63564;46.840;18.336;2024-02-16T16:11:21;11.02;70.04
75010;DHT22;63564;46.840;18.336;2024-02-16T16:14:21;10.82;69.93
75010;DHT22;63564;46.840;18.336;2024-02-16T16:17:22;10.57;71.13
75010;DHT22;63564;46.840;18.336;2024-02-16T16:20:22;10.40;71.41
75010;DHT22;63564;46.840;18.336;2024-02-16T16:23:22;10.27;71.94
75010;DHT22;63564;46.840;18.336;2024-02-16T16:26:23;10.05;72.43
75010;DHT22;63564;46.840;18.336;2024-02-16T16:29:26;9.93;72.49
75010;DHT22;63564;46.840;18.336;2024-02-16T16:32:26;9.75;73.52
75010;DHT22;63564;46.840;18.336;2024-02-16T16:35:27;9.52;74.53
75010;DHT22;63564;46.840;18.336;2024-02-16T16:38:27;9.30;75.42
75010;DHT22;63564;46.840;18.336;2024-02-16T16:41:27;9.13;76.52
75010;DHT22;63564;46.840;18.336;2024-02-16T16:44:28;8.94;77.05
75010;DHT22;63564;46.840;18.336;2024-02-16T16:47:28;8.68;77.05
75010;DHT22;63564;46.840;18.336;2024-02-16T16:50:29;8.49;77.32
75010;DHT22;63564;46.840;18.336;2024-02-16T16:53:29;8.46;77.19
75010;DHT22;63564;46.840;18.336;2024-02-16T16:56:30;8.38;76.99
75010;DHT22;63564;46.840;18.336;2024-02-16T16:59:31;8.33;76.82
75010;DHT22;63564;46.840;18.336;2024-02-16T17:02:33;8.23;77.04
75010;DHT22;63564;46.840;18.336;2024-02-16T17:05:33;8.17;77.05
75010;DHT22;63564;46.840;18.336;2024-02-16T17:08:35;8.15;76.36
75010;DHT22;63564;46.840;18.336;2024-02-16T17:11:35;8.14;76.22
75010;DHT22;63564;46.840;18.336;2024-02-16T17:14:36;8.10;76.19
75010;DHT22;63564;46.840;18.336;2024-02-16T17:17:36;8.04;76.33
75010;DHT22;63564;46.840;18.336;2024-02-16T17:20:37;7.93;76.83
75010;DHT22;63564;46.840;18.336;2024-02-16T17:23:40;7.89;77.65
75010;DHT22;63564;46.840;18.336;2024-02-16T17:26:40;7.77;77.82
75010;DHT22;63564;46.840;18.336;2024-02-16T17:29:40;7.65;78.13
75010;DHT22;63564;46.840;18.336;2024-02-16T17:32:42;7.59;79.14
75010;DHT22;63564;46.840;18.336;2024-02-16T17:35:43;7.51;79.06
75010;DHT22;63564;46.840;18.336;2024-02-16T17:38:45;7.32;79.57
75010;DHT22;63564;46.840;18.336;2024-02-16T17:41:46;7.22;80.07
75010;DHT22;63564;46.840;18.336;2024-02-16T17:44:46;7.15;80.23
75010;DHT22;63564;46.840;18.336;2024-02-16T17:47:47;7.12;80.38
75010;DHT22;63564;46.840;18.336;2024-02-16T17:50:47;7.11;80.37
75010;DHT22;63564;46.840;18.336;2024-02-16T17:53:47;7.03;80.44
75010;DHT22;63564;46.840;18.336;2024-02-16T17:56:48;7.03;80.18
75010;DHT22;63564;46.840;18.336;2024-02-16T17:59:48;7.00;79.90
75010;DHT22;63564;46.840;18.336;2024-02-16T18:02:49;7.03;79.45
75010;DHT22;63564;46.840;18.336;2024-02-16T18:05:52;7.17;78.34
75010;DHT22;63564;46.840;18.336;2024-02-16T18:08:54;7.10;78.24
75010;DHT22;63564;46.840;18.336;2024-02-16T18:11:54;6.99;77.99
75010;DHT22;63564;46.840;18.336;2024-02-16T18:14:54;7.01;77.31
75010;DHT22;63564;46.840;18.336;2024-02-16T18:17:55;7.00;77.13
75010;DHT22;63564;46.840;18.336;2024-02-16T18:20:57;6.91;76.97
75010;DHT22;63564;46.840;18.336;2024-02-16T18:23:57;6.89;77.05
75010;DHT22;63564;46.840;18.336;2024-02-16T18:26:57;6.83;76.74
75010;DHT22;63564;46.840;18.336;2024-02-16T18:29:58;6.83;76.61
75010;DHT22;63564;46.840;18.336;2024-02-16T18:32:58;6.82;76.58
75010;DHT22;63564;46.840;18.336;2024-02-16T18:35:58;6.76;76.50
75010;DHT22;63564;46.840;18.336;2024-02-16T18:39:02;6.68;77.09
75010;DHT22;63564;46.840;18.336;2024-02-16T18:42:04;6.62;77.29
75010;DHT22;63564;46.840;18.336;2024-02-16T18:45:05;6.61;77.07
75010;DHT22;63564;46.840;18.336;2024-02-16T18:48:11;6.56;77.55
75010;DHT22;63564;46.840;18.336;2024-02-16T18:51:11;6.50;77.78
75010;DHT22;63564;46.840;18.336;2024-02-16T18:54:12;6.42;77.69
75010;DHT22;63564;46.840;18.336;2024-02-16T18:57:12;6.42;77.40